Time;durP1;ratioP1;P1;durP2;ratioP2;P2;SDS_P1;SDS_P2;PMS_P1;PMS_P2;Temp;Humidity;BMP_temperature;BMP_pressure;BME280_temperature;BME280_humidity;BME280_pressure;Samples;Min_cycle;Max_cycle;Signal;HPM_P1;HPM_P2
2022/08/26 00:00:32;;;;;;;4.90;2.55;;;24.60;65.40;;;;;;5013143;28;20418;-73
2022/08/26 00:02:58;;;;;;;4.47;2.80;;;24.60;65.60;;;;;;5013917;28;20065;-73
2022/08/26 00:05:24;;;;;;;6.65;2.90;;;24.60;65.50;;;;;;4979953;28;20034;-73
2022/08/26 00:07:51;;;;;;;4.60;2.97;;;24.60;65.50;;;;;;4979774;28;20129;-73
2022/08/26 00:10:18;;;;;;;4.43;2.70;;;24.60;65.60;;;;;;4995484;28;20038;-73
2022/08/26 00:12:44;;;;;;;3.17;2.70;;;24.60;65.50;;;;;;5013179;28;20036;-73
2022/08/26 00:15:12;;;;;;;3.35;2.72;;;24.60;65.50;;;;;;5013261;28;20037;-73
2022/08/26 00:17:38;;;;;;;5.68;2.85;;;24.60;65.50;;;;;;4979465;28;20405;-73
2022/08/26 00:20:06;;;;;;;5.20;2.78;;;24.60;65.50;;;;;;5012756;28;20025;-73
2022/08/26 00:22:32;;;;;;;3.50;2.65;;;24.60;65.50;;;;;;5013133;28;20026;-73
2022/08/26 00:24:58;;;;;;;4.93;2.80;;;24.60;65.50;;;;;;5013080;28;20033;-73
2022/08/26 00:27:24;;;;;;;4.28;2.85;;;24.60;65.60;;;;;;4995597;28;20034;-73
2022/08/26 00:29:50;;;;;;;3.33;2.70;;;24.60;65.40;;;;;;5012684;28;20509;-74
2022/08/26 00:32:16;;;;;;;3.80;2.80;;;24.60;65.60;;;;;;5013069;28;20026;-73
2022/08/26 00:34:41;;;;;;;4.00;2.83;;;24.60;65.30;;;;;;5012888;28;20635;-73
2022/08/26 00:37:09;;;;;;;4.22;2.75;;;24.60;65.50;;;;;;4995300;28;20533;-73
2022/08/26 00:39:35;;;;;;;6.57;2.97;;;24.60;65.40;;;;;;5012590;28;20026;-73
2022/08/26 00:42:00;;;;;;;4.68;2.80;;;24.60;65.40;;;;;;5013047;28;20022;-73
2022/08/26 00:44:26;;;;;;;3.95;2.60;;;24.60;65.40;;;;;;5012757;28;20025;-73
2022/08/26 00:46:58;;;;;;;3.22;2.50;;;24.60;65.30;;;;;;5012630;28;20034;-73
2022/08/26 00:49:40;;;;;;;4.07;2.88;;;24.60;65.30;;;;;;4994837;28;20032;-73
2022/08/26 00:52:08;;;;;;;4.15;2.67;;;24.70;65.40;;;;;;5012586;28;20026;-73
2022/08/26 00:54:44;;;;;;;3.75;2.90;;;24.60;65.30;;;;;;5054290;22;20396;-72
2022/08/26 00:57:13;;;;;;;3.53;2.70;;;24.60;65.30;;;;;;5051832;28;20025;-72
2022/08/26 00:59:40;;;;;;;4.65;2.80;;;24.60;65.30;;;;;;5034078;28;20033;-72
2022/08/26 01:02:05;;;;;;;4.30;2.67;;;24.60;65.30;;;;;;5034223;28;20028;-72
2022/08/26 01:04:35;;;;;;;5.07;2.78;;;24.60;65.30;;;;;;5037335;28;20033;-73
2022/08/26 01:07:02;;;;;;;3.95;2.47;;;24.60;65.40;;;;;;5032019;28;20533;-72
2022/08/26 01:09:29;;;;;;;3.17;2.50;;;24.60;65.30;;;;;;5031513;28;20037;-72
2022/08/26 01:11:57;;;;;;;3.40;2.60;;;24.60;65.40;;;;;;4998003;28;20053;-72
2022/08/26 01:14:28;;;;;;;3.70;2.60;;;24.60;65.40;;;;;;5031971;28;20022;-72
2022/08/26 01:16:54;;;;;;;3.83;2.80;;;24.60;65.40;;;;;;5031912;28;20040;-72
2022/08/26 01:19:30;;;;;;;3.25;2.50;;;24.60;65.40;;;;;;5031533;28;20104;-71
2022/08/26 01:22:01;;;;;;;4.30;2.65;;;24.60;65.30;;;;;;5014691;28;20041;-72
2022/08/26 01:24:29;;;;;;;3.70;2.78;;;24.60;65.50;;;;;;5031798;28;20087;-72
2022/08/26 01:27:00;;;;;;;3.45;2.80;;;24.60;65.50;;;;;;5014191;28;20025;-72
2022/08/26 01:29:28;;;;;;;5.40;2.78;;;24.60;65.50;;;;;;5031487;28;20104;-72
2022/08/26 01:31:56;;;;;;;4.25;2.60;;;24.60;65.40;;;;;;5031389;28;20022;-72
2022/08/26 01:34:25;;;;;;;3.92;2.90;;;24.60;65.40;;;;;;5031630;28;20493;-72
2022/08/26 01:36:59;;;;;;;5.40;3.03;;;24.60;65.50;;;;;;5031689;28;20029;-72
2022/08/26 01:39:25;;;;;;;4.82;2.70;;;24.60;65.50;;;;;;5013970;28;20072;-72
2022/08/26 01:41:55;;;;;;;3.40;2.50;;;24.60;65.50;;;;;;5014177;28;20107;-72
2022/08/26 01:44:24;;;;;;;4.18;2.72;;;24.60;65.40;;;;;;5031579;28;20029;-72
2022/08/26 01:46:51;;;;;;;4.13;2.90;;;24.60;65.40;;;;;;5031578;28;20025;-72
2022/08/26 01:49:19;;;;;;;3.88;2.80;;;24.60;65.40;;;;;;5031222;28;20036;-72
2022/08/26 01:51:48;;;;;;;3.80;2.53;;;24.60;65.40;;;;;;5013950;28;20030;-72
2022/08/26 01:54:14;;;;;;;3.67;2.35;;;24.60;65.50;;;;;;5031412;28;20036;-71
2022/08/26 01:56:40;;;;;;;3.95;2.72;;;24.60;65.50;;;;;;5031574;28;20030;-72
2022/08/26 01:59:09;;;;;;;3.97;2.92;;;24.60;65.50;;;;;;4997141;28;20381;-72
2022/08/26 02:01:36;;;;;;;5.97;3.08;;;24.60;65.50;;;;;;5014098;28;20164;-72
2022/08/26 02:04:23;;;;;;;4.22;2.80;;;24.60;65.50;;;;;;5013900;28;20508;-72
2022/08/26 02:06:49;;;;;;;7.03;3.10;;;24.60;65.40;;;;;;5013859;28;20030;-72
2022/08/26 02:09:17;;;;;;;5.28;3.00;;;24.60;65.50;;;;;;5031203;28;20139;-72
2022/08/26 02:11:43;;;;;;;3.85;2.78;;;24.60;65.40;;;;;;5031428;28;20041;-72
2022/08/26 02:14:16;;;;;;;4.13;2.40;;;24.60;65.40;;;;;;4997247;28;20034;-72
2022/08/26 02:16:46;;;;;;;5.22;2.75;;;24.60;65.30;;;;;;5031390;28;20038;-72
2022/08/26 02:19:14;;;;;;;3.83;2.70;;;24.60;65.30;;;;;;5013352;28;20087;-72
2022/08/26 02:21:42;;;;;;;3.95;2.78;;;24.60;65.20;;;;;;5013748;28;20057;-72
2022/08/26 02:24:29;;;;;;;3.42;2.75;;;24.60;65.30;;;;;;5031760;28;20029;-72
2022/08/26 02:26:56;;;;;;;3.95;2.63;;;24.60;65.20;;;;;;5013733;28;20033;-72
2022/08/26 02:29:36;;;;;;;4.95;2.92;;;24.60;65.20;;;;;;5030982;28;20064;-71
2022/08/26 02:32:06;;;;;;;4.40;3.05;;;24.60;65.20;;;;;;5031291;28;20044;-72
2022/08/26 02:34:32;;;;;;;4.38;2.50;;;24.60;65.20;;;;;;5013495;28;20040;-72
2022/08/26 02:37:05;;;;;;;3.25;2.60;;;24.60;65.20;;;;;;5031110;28;20033;-72
2022/08/26 02:39:32;;;;;;;4.20;2.78;;;24.60;65.20;;;;;;5013139;28;20056;-72
2022/08/26 02:41:58;;;;;;;5.05;2.70;;;24.60;65.20;;;;;;5031120;28;20025;-71
2022/08/26 02:44:25;;;;;;;3.05;2.30;;;24.60;65.20;;;;;;5015980;28;20021;-72
2022/08/26 02:46:51;;;;;;;4.30;2.60;;;24.60;65.20;;;;;;5034490;28;20036;-72
2022/08/26 02:49:18;;;;;;;4.80;2.67;;;24.60;65.20;;;;;;5034378;28;20025;-72
2022/08/26 02:51:45;;;;;;;4.13;2.60;;;24.60;65.20;;;;;;5016810;28;20104;-72
2022/08/26 02:54:12;;;;;;;3.47;2.42;;;24.60;65.30;;;;;;5016556;28;20067;-72
2022/08/26 02:56:38;;;;;;;4.38;2.78;;;24.60;65.30;;;;;;5016745;28;20034;-72
2022/08/26 02:59:04;;;;;;;4.43;2.83;;;24.60;65.30;;;;;;5034267;28;20139;-72
2022/08/26 03:01:33;;;;;;;4.10;2.50;;;24.60;65.30;;;;;;5034238;28;20520;-72
2022/08/26 03:04:01;;;;;;;4.70;3.05;;;24.60;65.40;;;;;;5034228;28;20152;-72
2022/08/26 03:06:27;;;;;;;4.20;2.92;;;24.60;65.40;;;;;;5016471;28;20030;-72
2022/08/26 03:08:54;;;;;;;5.57;2.65;;;24.60;65.40;;;;;;4999981;28;20033;-72
2022/08/26 03:11:21;;;;;;;3.53;2.60;;;24.60;65.30;;;;;;5034269;28;20555;-71
2022/08/26 03:13:48;;;;;;;5.53;2.90;;;24.60;65.30;;;;;;5034004;28;20470;-72
2022/08/26 03:16:14;;;;;;;5.03;2.63;;;24.60;65.40;;;;;;5033943;28;20524;-72
2022/08/26 03:18:40;;;;;;;4.72;2.67;;;24.60;65.30;;;;;;5033494;28;20382;-72
2022/08/26 03:21:16;;;;;;;3.55;2.75;;;24.60;65.40;;;;;;5016271;28;20084;-72
2022/08/26 03:23:43;;;;;;;6.03;2.53;;;24.60;65.30;;;;;;5033871;28;20112;-72
2022/08/26 03:26:11;;;;;;;3.72;2.72;;;24.60;65.40;;;;;;5033859;28;20072;-72
2022/08/26 03:30:38;;;;;;;3.90;2.80;;;24.60;65.50;;;;;;5015831;28;20030;-72
2022/08/26 03:31:27;;;;;;;5.18;2.70;;;24.50;65.30;;;;;;5015771;28;20043;-72
2022/08/26 03:33:54;;;;;;;3.33;2.40;;;24.60;65.50;;;;;;5033651;28;20033;-72
2022/08/26 03:36:21;;;;;;;3.67;2.70;;;24.60;65.50;;;;;;5016264;28;20056;-72
2022/08/26 03:38:47;;;;;;;4.38;2.63;;;24.60;65.40;;;;;;5015499;28;20482;-72
2022/08/26 03:41:13;;;;;;;5.93;2.58;;;24.60;65.50;;;;;;5015941;28;20499;-73
2022/08/26 03:43:39;;;;;;;4.90;3.00;;;24.60;65.50;;;;;;5015827;28;20412;-72
2022/08/26 03:46:06;;;;;;;5.60;2.47;;;24.60;65.60;;;;;;5015904;28;20106;-72
2022/08/26 03:48:32;;;;;;;4.93;3.08;;;24.60;65.40;;;;;;5015437;28;20033;-73
2022/08/26 03:50:59;;;;;;;6.28;2.80;;;24.60;65.30;;;;;;5015904;28;20033;-72
2022/08/26 03:53:25;;;;;;;3.83;2.47;;;24.60;65.40;;;;;;4999168;28;20040;-72
2022/08/26 03:55:51;;;;;;;4.90;2.83;;;24.60;65.20;;;;;;4999160;28;20033;-72
2022/08/26 03:58:17;;;;;;;4.85;2.78;;;24.60;65.20;;;;;;5015495;28;20391;-72
2022/08/26 04:00:43;;;;;;;3.15;2.55;;;24.60;65.20;;;;;;5015332;28;20534;-72
2022/08/26 04:03:10;;;;;;;3.20;2.60;;;24.60;65.20;;;;;;5033179;28;20052;-72
2022/08/26 04:05:36;;;;;;;3.90;2.50;;;24.60;65.20;;;;;;5033049;28;20033;-72
2022/08/26 04:08:03;;;;;;;3.45;2.50;;;24.70;65.20;;;;;;4999202;28;20037;-72
2022/08/26 04:10:29;;;;;;;4.35;2.97;;;24.60;65.20;;;;;;5032722;28;20033;-72
2022/08/26 04:12:58;;;;;;;3.47;2.70;;;24.60;65.20;;;;;;5032878;28;20602;-72
2022/08/26 04:15:23;;;;;;;3.97;2.63;;;24.70;65.20;;;;;;5033009;28;20029;-72
2022/08/26 04:17:49;;;;;;;3.90;2.53;;;24.60;65.20;;;;;;5032760;28;20037;-72
2022/08/26 04:20:17;;;;;;;4.13;2.50;;;24.60;65.10;;;;;;5032542;28;20061;-72
2022/08/26 04:22:44;;;;;;;4.43;2.72;;;24.60;65.10;;;;;;5033130;28;20068;-72
2022/08/26 04:25:11;;;;;;;4.60;2.75;;;24.60;65.20;;;;;;5015156;28;20074;-72
2022/08/26 04:27:37;;;;;;;3.28;2.63;;;24.60;65.20;;;;;;4998630;28;20477;-72
2022/08/26 04:30:04;;;;;;;4.40;2.70;;;24.60;65.20;;;;;;5032192;28;20065;-72
2022/08/26 04:32:29;;;;;;;5.07;2.95;;;24.60;65.20;;;;;;5032795;28;20436;-73
2022/08/26 04:34:55;;;;;;;5.25;2.90;;;24.60;65.30;;;;;;5032583;28;20037;-72
2022/08/26 04:37:21;;;;;;;5.70;3.00;;;24.60;65.30;;;;;;5032414;28;20062;-72
2022/08/26 04:39:52;;;;;;;3.85;2.72;;;24.60;65.30;;;;;;5032067;28;20057;-72
2022/08/26 04:42:18;;;;;;;4.35;2.67;;;24.60;65.30;;;;;;5014953;28;20439;-73
2022/08/26 04:44:44;;;;;;;3.25;2.38;;;24.60;65.30;;;;;;4982177;28;20029;-72
2022/08/26 04:47:10;;;;;;;5.35;3.00;;;24.60;65.30;;;;;;5014698;28;20029;-72
2022/08/26 04:49:37;;;;;;;3.65;2.80;;;24.60;65.40;;;;;;5014383;28;20500;-72
2022/08/26 04:52:03;;;;;;;3.08;2.50;;;24.60;65.30;;;;;;5032277;28;20124;-72
2022/08/26 04:54:29;;;;;;;5.28;2.80;;;24.60;65.30;;;;;;5032403;28;20025;-72
2022/08/26 04:56:55;;;;;;;3.25;2.40;;;24.60;65.30;;;;;;4998223;28;20668;-72
2022/08/26 04:59:21;;;;;;;5.70;2.97;;;24.60;65.30;;;;;;5014183;28;20508;-72
2022/08/26 05:01:50;;;;;;;5.55;2.80;;;24.60;65.40;;;;;;5032266;28;20026;-73
2022/08/26 05:04:18;;;;;;;5.18;2.97;;;24.60;65.50;;;;;;5037050;28;20482;-72
2022/08/26 05:06:43;;;;;;;5.35;2.80;;;24.60;65.30;;;;;;5032405;28;20055;-72
2022/08/26 05:09:11;;;;;;;4.72;3.03;;;24.60;65.40;;;;;;5051166;28;20033;-73
2022/08/26 05:11:37;;;;;;;4.60;2.90;;;24.60;65.30;;;;;;5001070;28;20075;-73
2022/08/26 05:14:04;;;;;;;4.45;2.72;;;24.60;65.30;;;;;;5051816;28;20539;-73
2022/08/26 05:16:31;;;;;;;4.78;3.03;;;24.60;65.30;;;;;;5033858;28;20067;-73
2022/08/26 05:18:56;;;;;;;5.45;3.00;;;24.60;65.30;;;;;;5033413;28;20029;-72
2022/08/26 05:21:25;;;;;;;3.88;2.70;;;24.60;65.20;;;;;;5017713;28;20339;-73
2022/08/26 05:23:53;;;;;;;4.20;3.03;;;24.60;65.30;;;;;;5033494;28;20481;-73
2022/08/26 05:26:20;;;;;;;4.88;2.97;;;24.60;65.40;;;;;;5017642;28;20032;-73
2022/08/26 05:28:46;;;;;;;5.22;2.90;;;24.60;65.30;;;;;;5051107;28;20043;-73
2022/08/26 05:31:19;;;;;;;3.90;2.50;;;24.60;65.40;;;;;;5017631;28;20119;-73
2022/08/26 05:33:45;;;;;;;4.82;2.70;;;24.60;65.30;;;;;;5051515;28;20527;-72
2022/08/26 05:36:14;;;;;;;3.67;2.60;;;24.60;65.20;;;;;;5051724;28;20039;-73
2022/08/26 05:38:40;;;;;;;4.20;2.83;;;24.60;65.10;;;;;;5051021;28;20048;-73
2022/08/26 05:41:33;;;;;;;5.05;2.90;;;24.60;65.10;;;;;;5033890;28;20071;-73
2022/08/26 05:44:00;;;;;;;4.38;2.33;;;24.60;65.10;;;;;;5017169;28;20035;-72
2022/08/26 05:46:27;;;;;;;4.25;2.60;;;24.60;65.20;;;;;;5033786;28;20079;-72
2022/08/26 05:48:54;;;;;;;4.80;2.90;;;24.60;65.10;;;;;;5050986;28;20071;-72
2022/08/26 05:51:20;;;;;;;4.20;2.95;;;24.70;65.20;;;;;;5051444;28;20029;-72
2022/08/26 05:53:46;;;;;;;4.60;2.80;;;24.70;65.20;;;;;;5051133;28;20043;-72
2022/08/26 05:56:12;;;;;;;4.40;2.80;;;24.70;65.10;;;;;;5051442;28;20033;-72
2022/08/26 05:58:41;;;;;;;5.68;2.83;;;24.70;65.10;;;;;;5050734;28;20037;-73
2022/08/26 06:01:13;;;;;;;4.72;2.85;;;24.70;65.20;;;;;;5033609;28;20139;-72
2022/08/26 06:03:43;;;;;;;6.10;2.92;;;24.60;65.10;;;;;;5033547;28;20412;-72
2022/08/26 06:06:22;;;;;;;4.90;2.92;;;24.70;65.70;;;;;;5051312;28;20437;-73
2022/08/26 06:08:48;;;;;;;5.43;3.35;;;24.60;65.20;;;;;;5051218;28;20033;-73
2022/08/26 06:11:17;;;;;;;4.32;2.88;;;24.60;65.10;;;;;;5033617;28;20033;-72
2022/08/26 06:13:43;;;;;;;4.47;2.92;;;24.60;65.10;;;;;;5016939;28;20400;-72
2022/08/26 06:16:12;;;;;;;4.53;2.50;;;24.60;65.20;;;;;;5051342;28;20033;-73
2022/08/26 06:18:41;;;;;;;6.40;2.77;;;24.60;65.20;;;;;;5054255;28;20047;-73
2022/08/26 06:21:34;;;;;;;5.05;2.90;;;24.60;65.20;;;;;;5020827;28;20275;-72
2022/08/26 06:26:54;;;;;;;5.53;3.00;;;24.70;65.30;;;;;;5036964;28;20417;-72
2022/08/26 06:29:23;;;;;;;5.25;2.83;;;24.60;65.20;;;;;;5036659;28;20109;-72
2022/08/26 06:31:49;;;;;;;3.58;2.80;;;24.60;65.20;;;;;;5054834;28;20044;-72
2022/08/26 06:34:16;;;;;;;4.63;2.80;;;24.60;65.20;;;;;;5036956;28;20033;-73
2022/08/26 06:36:43;;;;;;;3.58;2.78;;;24.60;65.20;;;;;;5054622;28;20047;-73
2022/08/26 06:39:13;;;;;;;5.40;2.90;;;24.60;65.20;;;;;;5019899;28;20033;-72
2022/08/26 06:41:39;;;;;;;4.55;2.95;;;24.60;65.20;;;;;;5054590;28;20314;-72
2022/08/26 06:44:06;;;;;;;4.38;3.03;;;24.60;65.30;;;;;;5054579;28;20025;-72
2022/08/26 06:46:34;;;;;;;3.75;2.90;;;24.70;65.40;;;;;;5054562;28;20029;-72
2022/08/26 06:49:00;;;;;;;6.10;2.88;;;24.60;65.30;;;;;;5036281;28;20448;-73
2022/08/26 06:51:28;;;;;;;4.63;2.95;;;24.60;65.30;;;;;;5020333;28;20069;-73
2022/08/26 06:53:58;;;;;;;3.67;2.88;;;24.60;65.30;;;;;;5054142;28;20583;-72
2022/08/26 06:56:31;;;;;;;4.28;3.00;;;24.70;65.30;;;;;;5020212;28;20032;-73
2022/08/26 06:58:57;;;;;;;7.38;3.40;;;24.70;65.30;;;;;;5053843;28;20033;-72
2022/08/26 07:01:28;;;;;;;7.00;3.05;;;24.60;65.30;;;;;;5054304;28;20021;-73
2022/08/26 07:03:56;;;;;;;3.75;2.65;;;24.70;65.20;;;;;;5036276;28;20159;-73
2022/08/26 07:06:24;;;;;;;4.63;2.85;;;24.70;65.20;;;;;;5036853;28;20028;-73
2022/08/26 07:08:51;;;;;;;4.93;2.80;;;24.70;65.30;;;;;;5035961;28;20071;-73
2022/08/26 07:11:18;;;;;;;4.72;2.70;;;24.70;65.40;;;;;;5036328;28;20036;-73
2022/08/26 07:13:45;;;;;;;2.90;2.40;;;24.70;65.30;;;;;;5053906;28;20032;-73
2022/08/26 07:16:13;;;;;;;5.65;2.97;;;24.70;65.30;;;;;;5053889;28;20052;-73
2022/08/26 07:18:41;;;;;;;3.78;3.05;;;24.80;65.40;;;;;;5053472;28;20051;-73
2022/08/26 07:21:10;;;;;;;4.20;2.60;;;24.80;65.40;;;;;;5053521;28;20116;-73
2022/08/26 07:23:36;;;;;;;4.63;2.90;;;24.80;65.40;;;;;;5019616;28;20162;-73
2022/08/26 07:26:16;;;;;;;3.95;2.92;;;24.80;65.40;;;;;;5019541;28;20053;-73
2022/08/26 07:28:45;;;;;;;3.78;3.00;;;24.80;65.50;;;;;;5052762;28;20500;-73
2022/08/26 07:31:12;;;;;;;4.32;2.70;;;24.80;65.40;;;;;;5053808;28;20029;-73
2022/08/26 07:33:40;;;;;;;5.47;2.88;;;24.80;65.30;;;;;;5053592;28;20048;-73
2022/08/26 07:36:07;;;;;;;3.58;2.80;;;24.80;65.40;;;;;;5053711;28;20098;-73
2022/08/26 07:38:34;;;;;;;3.53;2.80;;;24.80;65.40;;;;;;5053213;28;20036;-72
2022/08/26 07:41:00;;;;;;;4.90;2.85;;;24.90;65.50;;;;;;5053488;28;20021;-73
2022/08/26 07:43:27;;;;;;;4.47;2.83;;;24.80;65.40;;;;;;5035492;28;20400;-73
2022/08/26 07:45:53;;;;;;;5.70;3.08;;;24.80;65.40;;;;;;5035560;28;20053;-72
2022/08/26 07:48:20;;;;;;;4.57;3.00;;;24.90;65.50;;;;;;5053334;28;20511;-72
2022/08/26 07:50:46;;;;;;;4.07;2.80;;;24.80;65.40;;;;;;5019291;28;20041;-73
2022/08/26 07:53:13;;;;;;;4.05;2.80;;;24.80;65.50;;;;;;5052979;28;20035;-73
2022/08/26 07:55:39;;;;;;;4.88;3.22;;;24.80;65.50;;;;;;5035490;28;20220;-73
2022/08/26 07:58:05;;;;;;;3.60;2.78;;;24.90;65.60;;;;;;5053034;28;20103;-72
2022/08/26 08:00:32;;;;;;;4.97;2.70;;;24.90;65.60;;;;;;5018662;28;20053;-72
2022/08/26 08:03:06;;;;;;;3.35;2.58;;;24.90;65.60;;;;;;5035332;28;20059;-72
2022/08/26 08:05:33;;;;;;;4.03;2.75;;;24.90;65.60;;;;;;5035923;28;20025;-72
2022/08/26 08:08:01;;;;;;;3.65;2.70;;;24.90;65.60;;;;;;5018754;28;20068;-72
2022/08/26 08:10:28;;;;;;;4.65;2.65;;;24.90;65.70;;;;;;5052909;28;20107;-72
2022/08/26 08:12:56;;;;;;;5.18;2.92;;;24.80;65.60;;;;;;5053303;28;20037;-72
2022/08/26 08:15:26;;;;;;;4.93;2.67;;;24.80;65.60;;;;;;5018750;28;20036;-72
2022/08/26 08:17:53;;;;;;;4.15;2.65;;;24.80;65.60;;;;;;5018673;28;20036;-72
2022/08/26 08:20:20;;;;;;;4.07;2.50;;;24.80;65.50;;;;;;5034869;28;20354;-73
2022/08/26 08:22:47;;;;;;;5.38;2.88;;;24.80;65.70;;;;;;5034772;28;20029;-73
2022/08/26 08:25:13;;;;;;;4.95;2.90;;;24.80;65.60;;;;;;5018495;28;20400;-72
2022/08/26 08:27:41;;;;;;;4.63;2.90;;;24.80;65.70;;;;;;5052620;28;20374;-72
2022/08/26 08:30:08;;;;;;;3.97;2.88;;;24.80;65.70;;;;;;5034442;28;20044;-73
2022/08/26 08:32:37;;;;;;;4.32;2.75;;;24.80;65.70;;;;;;5034918;28;20029;-74
2022/08/26 08:35:04;;;;;;;4.20;2.67;;;24.90;65.70;;;;;;5052242;28;20462;-73
2022/08/26 08:37:30;;;;;;;3.30;2.60;;;24.90;65.70;;;;;;5052341;28;20104;-73
2022/08/26 08:39:56;;;;;;;3.95;2.75;;;24.90;65.70;;;;;;5051785;28;20135;-73
2022/08/26 08:42:50;;;;;;;3.55;2.75;;;24.90;65.80;;;;;;5017578;28;20040;-73
2022/08/26 08:45:41;;;;;;;4.22;2.90;;;24.90;65.80;;;;;;5034465;28;20500;-73
2022/08/26 08:48:24;;;;;;;3.90;2.65;;;24.90;65.80;;;;;;5052245;28;20392;-73
2022/08/26 08:50:54;;;;;;;5.18;2.80;;;24.90;65.70;;;;;;5034371;28;20057;-72
2022/08/26 08:53:22;;;;;;;3.92;2.47;;;24.90;65.70;;;;;;5051942;28;20036;-72
2022/08/26 08:56:06;;;;;;;4.65;2.53;;;24.90;65.80;;;;;;5034259;28;20044;-72
2022/08/26 08:59:10;;;;;;;4.03;2.80;;;24.90;65.70;;;;;;5051623;28;20495;-73
2022/08/26 09:01:53;;;;;;;4.32;2.60;;;24.90;65.80;;;;;;5022270;28;20166;-72
2022/08/26 09:04:34;;;;;;;4.05;2.65;;;24.90;65.70;;;;;;5019686;28;20032;-72
2022/08/26 09:07:02;;;;;;;3.30;2.80;;;24.90;65.70;;;;;;5051870;28;20036;-72
2022/08/26 09:09:37;;;;;;;3.20;2.50;;;24.90;65.80;;;;;;5051561;28;20036;-72
2022/08/26 09:12:08;;;;;;;4.10;2.97;;;24.90;65.80;;;;;;5033870;28;20033;-72
2022/08/26 09:14:34;;;;;;;4.38;2.75;;;24.90;65.80;;;;;;5051832;28;20029;-72
2022/08/26 09:17:06;;;;;;;3.10;2.45;;;24.90;65.70;;;;;;5017564;28;20035;-72
2022/08/26 09:19:40;;;;;;;3.42;2.47;;;24.90;65.70;;;;;;5033741;28;20029;-72
2022/08/26 09:22:06;;;;;;;4.40;2.72;;;24.90;65.80;;;;;;5033812;28;20028;-73
2022/08/26 09:24:34;;;;;;;4.00;2.75;;;24.90;65.80;;;;;;5051640;28;20025;-73
2022/08/26 09:27:00;;;;;;;3.42;2.60;;;24.90;65.80;;;;;;5033850;28;20416;-72
2022/08/26 09:29:33;;;;;;;5.43;2.72;;;24.90;65.90;;;;;;5017207;28;20083;-73
2022/08/26 09:32:23;;;;;;;3.40;2.50;;;24.90;65.80;;;;;;5017413;28;20037;-73
2022/08/26 09:34:58;;;;;;;3.78;2.80;;;24.90;65.80;;;;;;5033994;28;20037;-73
2022/08/26 09:37:36;;;;;;;4.97;2.75;;;24.80;65.80;;;;;;5033694;28;20029;-73
2022/08/26 09:40:17;;;;;;;3.90;2.78;;;24.80;65.80;;;;;;5033707;28;20048;-73
2022/08/26 09:42:43;;;;;;;5.30;2.60;;;24.80;65.80;;;;;;5033922;28;20061;-73
2022/08/26 09:45:11;;;;;;;4.07;2.70;;;24.80;65.80;;;;;;5051424;28;20032;-73
2022/08/26 09:47:51;;;;;;;3.08;2.53;;;24.80;65.80;;;;;;5033582;28;20119;-73
2022/08/26 09:50:26;;;;;;;3.25;2.78;;;24.90;65.80;;;;;;5017178;28;20043;-73
2022/08/26 09:53:10;;;;;;;4.60;3.00;;;24.90;65.80;;;;;;5053519;28;20106;-73
2022/08/26 09:55:40;;;;;;;3.40;2.35;;;24.90;65.80;;;;;;5037740;28;20520;-73
2022/08/26 09:58:11;;;;;;;4.00;2.80;;;24.90;66.30;;;;;;5055954;28;20036;-72
2022/08/26 10:00:38;;;;;;;5.10;2.75;;;24.90;65.70;;;;;;5055170;28;20025;-72
2022/08/26 10:03:09;;;;;;;3.67;2.70;;;24.90;65.80;;;;;;5055092;28;20044;-72
2022/08/26 10:05:53;;;;;;;3.90;2.88;;;24.90;65.80;;;;;;5037625;28;20556;-72
2022/08/26 10:08:32;;;;;;;3.70;2.70;;;24.90;65.80;;;;;;5037359;28;20477;-72
2022/08/26 10:11:03;;;;;;;3.50;2.50;;;24.90;65.70;;;;;;5021037;28;20067;-72
2022/08/26 10:13:49;;;;;;;3.88;2.67;;;24.90;65.70;;;;;;5055093;28;20036;-72
2022/08/26 10:16:20;;;;;;;3.80;2.47;;;24.90;65.70;;;;;;5037556;28;20048;-72
2022/08/26 10:19:03;;;;;;;3.63;2.55;;;24.90;65.70;;;;;;5036887;28;20041;-73
2022/08/26 10:21:36;;;;;;;3.55;2.60;;;24.90;65.70;;;;;;5037192;28;20424;-72
2022/08/26 10:24:03;;;;;;;3.78;2.60;;;24.90;65.60;;;;;;5054923;28;20153;-73
2022/08/26 10:26:37;;;;;;;4.07;2.72;;;25.00;65.60;;;;;;5054854;28;20029;-72
2022/08/26 10:29:24;;;;;;;3.85;2.50;;;25.00;65.70;;;;;;5054620;28;20028;-72
2022/08/26 10:31:59;;;;;;;3.20;2.55;;;25.00;65.70;;;;;;5037012;28;20032;-72
2022/08/26 10:34:25;;;;;;;3.45;2.55;;;25.00;65.70;;;;;;5054653;28;20055;-72
2022/08/26 10:37:07;;;;;;;3.85;2.40;;;25.00;65.70;;;;;;5054196;28;20028;-72
2022/08/26 10:39:45;;;;;;;4.18;2.75;;;25.00;66.30;;;;;;5036500;28;20032;-73
2022/08/26 10:42:53;;;;;;;5.45;2.72;;;25.00;65.70;;;;;;5054618;28;20040;-72
2022/08/26 10:45:24;;;;;;;3.55;2.40;;;25.00;65.80;;;;;;5032358;28;20094;-72
2022/08/26 10:48:05;;;;;;;2.72;2.20;;;25.00;65.80;;;;;;5036479;28;20035;-72
2022/08/26 10:50:40;;;;;;;3.75;2.50;;;25.00;65.80;;;;;;5054255;28;20057;-72
2022/08/26 10:53:18;;;;;;;3.35;2.50;;;25.00;65.80;;;;;;5054168;28;20056;-72
2022/08/26 10:55:58;;;;;;;3.90;2.40;;;25.00;65.80;;;;;;5054600;28;20033;-72
2022/08/26 10:58:34;;;;;;;3.58;2.47;;;25.00;65.80;;;;;;5036302;28;20029;-72
2022/08/26 11:04:21;;;;;;;3.92;2.70;;;25.00;65.70;;;;;;5035356;28;20036;-73
2022/08/26 11:06:48;;;;;;;3.03;2.20;;;25.00;65.70;;;;;;5054299;28;20108;-72
2022/08/26 11:09:44;;;;;;;3.90;2.70;;;25.00;65.70;;;;;;5053791;28;20060;-72
2022/08/26 11:12:35;;;;;;;3.42;2.60;;;25.00;65.70;;;;;;5053961;28;20033;-73
2022/08/26 11:15:12;;;;;;;3.25;2.47;;;25.00;65.70;;;;;;5035962;28;20037;-72
2022/08/26 11:17:44;;;;;;;4.25;2.42;;;25.00;65.70;;;;;;5003909;28;20054;-73
2022/08/26 11:20:33;;;;;;;2.38;1.98;;;25.00;65.80;;;;;;5053794;28;20037;-72
2022/08/26 11:23:26;;;;;;;4.77;2.60;;;24.90;65.80;;;;;;5053867;28;20104;-72
2022/08/26 11:26:05;;;;;;;3.33;2.50;;;24.90;65.80;;;;;;5036102;28;20420;-73
2022/08/26 11:28:35;;;;;;;3.78;2.63;;;24.90;65.90;;;;;;5035660;28;20477;-72
2022/08/26 11:31:03;;;;;;;3.97;2.55;;;24.90;65.90;;;;;;5019498;28;20112;-72
2022/08/26 11:33:53;;;;;;;3.53;2.75;;;24.90;65.90;;;;;;5035740;28;20056;-73
2022/08/26 11:36:47;;;;;;;3.35;2.40;;;24.90;65.80;;;;;;5053572;28;20021;-72
2022/08/26 11:39:23;;;;;;;2.90;2.30;;;24.90;65.90;;;;;;5035411;28;20033;-73
2022/08/26 11:41:51;;;;;;;4.18;2.40;;;24.90;65.90;;;;;;5053679;28;20036;-73
2022/08/26 11:44:36;;;;;;;3.60;2.38;;;24.90;65.80;;;;;;5035542;28;20029;-73
2022/08/26 11:47:02;;;;;;;3.75;2.13;;;24.90;65.90;;;;;;5035565;28;20055;-72
2022/08/26 11:49:30;;;;;;;3.60;2.58;;;24.90;66.00;;;;;;5035236;28;20076;-72
2022/08/26 11:52:21;;;;;;;3.08;2.30;;;24.90;65.80;;;;;;5019295;28;20379;-73
2022/08/26 11:55:04;;;;;;;3.10;2.40;;;24.90;65.90;;;;;;5035375;28;20098;-72
2022/08/26 11:57:33;;;;;;;3.60;2.40;;;24.90;65.90;;;;;;5053133;28;20446;-73
2022/08/26 12:00:00;;;;;;;4.33;2.50;;;24.90;66.00;;;;;;5035181;28;20396;-73
2022/08/26 12:02:26;;;;;;;4.15;2.60;;;24.90;66.00;;;;;;5035213;28;20113;-72
2022/08/26 12:04:54;;;;;;;3.30;2.63;;;24.90;65.90;;;;;;5052589;28;20115;-73
2022/08/26 12:07:27;;;;;;;2.42;2.20;;;24.90;65.90;;;;;;5053016;28;20025;-73
2022/08/26 12:09:58;;;;;;;4.50;2.70;;;24.90;66.00;;;;;;5052695;28;20033;-73
2022/08/26 12:12:31;;;;;;;3.33;2.10;;;24.90;65.90;;;;;;5035132;28;20108;-72
2022/08/26 12:15:19;;;;;;;3.90;2.67;;;24.90;65.90;;;;;;5034881;28;20037;-73
2022/08/26 12:17:46;;;;;;;2.97;2.30;;;24.90;65.90;;;;;;5018424;28;20500;-73
2022/08/26 12:20:46;;;;;;;4.07;2.60;;;24.90;65.80;;;;;;5018084;28;20029;-73
2022/08/26 12:23:34;;;;;;;3.40;2.55;;;24.90;65.80;;;;;;5052848;28;20045;-73
2022/08/26 12:26:06;;;;;;;2.90;2.33;;;25.00;65.90;;;;;;5052709;28;20029;-73
2022/08/26 12:28:33;;;;;;;3.42;2.42;;;24.90;65.80;;;;;;5052307;28;20481;-73
2022/08/26 12:31:05;;;;;;;2.90;2.50;;;24.90;65.80;;;;;;5052590;28;20098;-73
2022/08/26 12:33:34;;;;;;;3.50;2.83;;;24.90;65.80;;;;;;5052358;28;20040;-73
2022/08/26 12:36:03;;;;;;;3.00;2.53;;;24.90;65.80;;;;;;5018277;28;20033;-74
2022/08/26 12:38:29;;;;;;;4.27;2.30;;;24.90;65.80;;;;;;5034203;28;20028;-73
2022/08/26 12:40:55;;;;;;;3.03;2.30;;;24.90;65.80;;;;;;5018435;28;20674;-74
2022/08/26 12:43:37;;;;;;;2.83;2.40;;;24.90;65.80;;;;;;5034378;28;20112;-73
2022/08/26 12:46:04;;;;;;;4.93;2.50;;;24.90;65.80;;;;;;5018094;28;20057;-73
2022/08/26 12:48:37;;;;;;;3.22;2.47;;;24.90;65.80;;;;;;5034462;28;20087;-73
2022/08/26 12:51:11;;;;;;;5.05;2.67;;;24.90;65.90;;;;;;5035046;28;20029;-73
2022/08/26 12:53:42;;;;;;;5.38;2.80;;;24.90;65.90;;;;;;5046713;22;20246;-77
2022/08/26 12:56:28;;;;;;;3.13;2.55;;;24.90;66.40;;;;;;5016506;28;20036;-77
2022/08/26 12:59:20;;;;;;;2.40;2.20;;;24.90;65.80;;;;;;5062727;28;20138;-77
2022/08/26 13:01:47;;;;;;;2.85;2.22;;;24.90;65.80;;;;;;5072041;28;20039;-77
2022/08/26 13:04:56;;;;;;;3.17;2.40;;;24.90;65.90;;;;;;5071983;28;20396;-77
2022/08/26 13:07:23;;;;;;;;;;;24.90;65.90;;;;;;4990961;28;20122;-77
2022/08/26 13:09:57;;;;;;;3.20;2.30;;;24.90;65.90;;;;;;4990063;28;19910;-77
2022/08/26 13:12:36;;;;;;;3.00;2.30;;;24.90;65.90;;;;;;5036724;28;20514;-77